nws-alerts: Checking more than four warning/county codes can delay the loading of your pages. You should use a cron job to get the data.
EllijayWeather Station Historical Data
Daily Summary for December 08, 2019 Units:  English    Metric   Both
Daily Weekly Monthly Yearly Custom
  High: Low: Average:
Temperature: 52.9 °F 38.1 °F 47.4 °F
Dew Point: 41.5 °F 34.2 °F 37.5 °F
Humidity: 93% 56% 69%
Wind Speed: 8.9mph 0mph 0.8mph
Wind Gust: 12mph - -
Wind- - SE
Pressure: 30.37 in 30.19 in -
Precipitation: 0 in    
Historical Graphs
 
 
Tabular Data for December 08, 2019
Time Temperature Dew Point Pressure Wind Wind Speed Wind Gust Humidity Rainfall Rate (Hourly) solar
00:00 38.1 °F 36 °F 30.33 in Calm     92% 0 in meteobridge W/m2
00:05 38.1 °F 36 °F 30.33 in Calm     92% 0 in meteobridge W/m2
00:10 38.1 °F 36.3 °F 30.33 in Calm     93% 0 in meteobridge W/m2
00:15 38.3 °F 36.5 °F 30.33 in Calm     93% 0 in meteobridge W/m2
00:20 38.5 °F 36.7 °F 30.34 in Calm     93% 0 in meteobridge W/m2
00:25 38.7 °F 36.9 °F 30.33 in Calm     93% 0 in meteobridge W/m2
00:30 38.8 °F 37 °F 30.33 in Calm     93% 0 in meteobridge W/m2
00:35 39.9 °F 38.1 °F 30.33 in Calm   1 mph 93% 0 in meteobridge W/m2
00:40 41.9 °F 39.4 °F 30.33 in Calm   2 mph 91% 0 in meteobridge W/m2
00:45 44.2 °F 40.3 °F 30.33 in Calm   1 mph 86% 0 in meteobridge W/m2
00:50 45.1 °F 40.6 °F 30.33 in SE 0.9 mph 1 mph 84% 0 in meteobridge W/m2
00:55 46 °F 40.8 °F 30.33 in SE 2 mph 5 mph 82% 0 in meteobridge W/m2
01:00 47.1 °F 41.4 °F 30.33 in Calm   1 mph 80% 0 in meteobridge W/m2
01:05 47.5 °F 41.4 °F 30.33 in SE 0.9 mph 1 mph 79% 0 in meteobridge W/m2
01:10 47.5 °F 41 °F 30.33 in Calm     78% 0 in meteobridge W/m2
01:15 47.8 °F 41.4 °F 30.33 in Calm   2 mph 78% 0 in meteobridge W/m2
01:20 48 °F 41.5 °F 30.33 in Calm   4 mph 78% 0 in meteobridge W/m2
01:25 48.2 °F 41.4 °F 30.33 in Calm     77% 0 in meteobridge W/m2
01:30 48.4 °F 41.5 °F 30.34 in Calm     77% 0 in meteobridge W/m2
01:35 48.2 °F 41.4 °F 30.34 in Calm   2 mph 77% 0 in meteobridge W/m2
01:40 48.2 °F 41.4 °F 30.34 in Calm   2 mph 77% 0 in meteobridge W/m2
01:45 48 °F 41.2 °F 30.34 in Calm   4 mph 77% 0 in meteobridge W/m2
01:50 48 °F 41.5 °F 30.33 in Calm     78% 0 in meteobridge W/m2
01:55 47.8 °F 41.4 °F 30.33 in Calm   2 mph 78% 0 in meteobridge W/m2
02:00 47.7 °F 41.2 °F 30.33 in Calm     78% 0 in meteobridge W/m2
02:05 47.7 °F 41.2 °F 30.33 in Calm   4 mph 78% 0 in meteobridge W/m2
02:10 47.7 °F 41.2 °F 30.33 in Calm   6 mph 78% 0 in meteobridge W/m2
02:15 47.5 °F 41 °F 30.33 in Calm     78% 0 in meteobridge W/m2
02:20 47.3 °F 41.2 °F 30.34 in SE 2 mph 2 mph 79% 0 in meteobridge W/m2
02:25 47.1 °F 41 °F 30.34 in Calm     79% 0 in meteobridge W/m2
02:30 46.9 °F 40.8 °F 30.34 in Calm   1 mph 79% 0 in meteobridge W/m2
02:35 46.9 °F 40.8 °F 30.34 in Calm     79% 0 in meteobridge W/m2
02:40 46.8 °F 41 °F 30.34 in Calm     80% 0 in meteobridge W/m2
02:45 46.6 °F 40.8 °F 30.34 in Calm     80% 0 in meteobridge W/m2
02:50 46.6 °F 40.8 °F 30.34 in Calm     80% 0 in meteobridge W/m2
02:55 46.6 °F 40.8 °F 30.34 in Calm     80% 0 in meteobridge W/m2
03:00 46.4 °F 40.8 °F 30.34 in Calm     81% 0 in meteobridge W/m2
03:05 46 °F 40.5 °F 30.34 in Calm   2 mph 81% 0 in meteobridge W/m2
03:10 45.9 °F 40.3 °F 30.34 in Calm   1 mph 81% 0 in meteobridge W/m2
03:15 46 °F 40.5 °F 30.34 in Calm     81% 0 in meteobridge W/m2
03:20 45.9 °F 40.3 °F 30.33 in Calm     81% 0 in meteobridge W/m2
03:25 45.9 °F 40.6 °F 30.33 in Calm   2 mph 82% 0 in meteobridge W/m2
03:30 45.9 °F 40.6 °F 30.33 in Calm     82% 0 in meteobridge W/m2
03:35 45.7 °F 40.5 °F 30.33 in Calm     82% 0 in meteobridge W/m2
03:40 45.5 °F 40.3 °F 30.33 in Calm   5 mph 82% 0 in meteobridge W/m2
03:45 45.5 °F 40.3 °F 30.34 in Calm   6 mph 82% 0 in meteobridge W/m2
03:50 45.3 °F 40.5 °F 30.33 in Calm     83% 0 in meteobridge W/m2
03:55 45.3 °F 40.5 °F 30.33 in Calm   1 mph 83% 0 in meteobridge W/m2
04:00 45.3 °F 40.5 °F 30.33 in SE 4 mph 4 mph 83% 0 in meteobridge W/m2
04:05 45.3 °F 40.5 °F 30.33 in Calm   2 mph 83% 0 in meteobridge W/m2
04:10 45.3 °F 40.5 °F 30.33 in Calm   2 mph 83% 0 in meteobridge W/m2
04:15 45.1 °F 40.3 °F 30.34 in Calm   5 mph 83% 0 in meteobridge W/m2
04:20 45.1 °F 40.3 °F 30.34 in Calm     83% 0 in meteobridge W/m2
04:25 45.1 °F 40.3 °F 30.33 in Calm     83% 0 in meteobridge W/m2
04:30 45.1 °F 40.3 °F 30.34 in Calm   5 mph 83% 0 in meteobridge W/m2
04:35 45 °F 40.1 °F 30.34 in Calm   4 mph 83% 0 in meteobridge W/m2
04:40 45 °F 40.1 °F 30.34 in SE 4.9 mph 5 mph 83% 0 in meteobridge W/m2
04:45 45 °F 40.1 °F 30.34 in Calm     83% 0 in meteobridge W/m2
04:50 45 °F 40.1 °F 30.34 in Calm   5 mph 83% 0 in meteobridge W/m2
04:55 45 °F 40.1 °F 30.34 in Calm   5 mph 83% 0 in meteobridge W/m2
05:00 45 °F 40.1 °F 30.34 in Calm     83% 0 in meteobridge W/m2
05:05 44.8 °F 40.3 °F 30.34 in Calm   2 mph 84% 0 in meteobridge W/m2
05:10 44.6 °F 40.1 °F 30.34 in Calm   1 mph 84% 0 in meteobridge W/m2
05:15 44.6 °F 40.1 °F 30.34 in Calm   1 mph 84% 0 in meteobridge W/m2
05:20 44.8 °F 39.9 °F 30.34 in Calm   5 mph 83% 0 in meteobridge W/m2
05:25 44.6 °F 39.7 °F 30.34 in Calm   2 mph 83% 0 in meteobridge W/m2
05:30 44.8 °F 39.9 °F 30.34 in Calm   2 mph 83% 0 in meteobridge W/m2
05:35 44.6 °F 39.7 °F 30.34 in Calm     83% 0 in meteobridge W/m2
05:40 44.4 °F 39.6 °F 30.34 in Calm   2 mph 83% 0 in meteobridge W/m2
05:45 44.4 °F 39.6 °F 30.34 in Calm   1 mph 83% 0 in meteobridge W/m2
05:50 44.4 °F 39.6 °F 30.34 in Calm     83% 0 in meteobridge W/m2
05:55 44.4 °F 39.6 °F 30.34 in Calm     83% 0 in meteobridge W/m2
06:00 44.2 °F 39.7 °F 30.34 in Calm     84% 0 in meteobridge W/m2
06:05 44.2 °F 39.4 °F 30.34 in Calm   2 mph 83% 0 in meteobridge W/m2
06:10 44.2 °F 39.4 °F 30.34 in SE 2 mph 6 mph 83% 0 in meteobridge W/m2
06:15 44.2 °F 39.4 °F 30.35 in Calm     83% 0 in meteobridge W/m2
06:20 44.2 °F 39.4 °F 30.35 in Calm   6 mph 83% 0 in meteobridge W/m2
06:25 44.1 °F 39.2 °F 30.34 in Calm     83% 0 in meteobridge W/m2
06:30 43.9 °F 39.4 °F 30.35 in Calm     84% 0 in meteobridge W/m2
06:35 43.9 °F 39 °F 30.35 in Calm   2 mph 83% 0 in meteobridge W/m2
06:40 43.9 °F 39 °F 30.34 in Calm     83% 0 in meteobridge W/m2
06:45 43.7 °F 38.8 °F 30.34 in SE 0.9 mph 4 mph 83% 0 in meteobridge W/m2
06:50 43.7 °F 38.8 °F 30.35 in Calm   4 mph 83% 0 in meteobridge W/m2
06:55 43.5 °F 38.7 °F 30.35 in Calm   7 mph 83% 0 in meteobridge W/m2
07:00 43.5 °F 38.7 °F 30.35 in SE 2 mph 6 mph 83% 0 in meteobridge W/m2
07:05 43.5 °F 38.5 °F 30.35 in Calm   4 mph 82% 0 in meteobridge W/m2
07:10 43.3 °F 38.3 °F 30.35 in Calm   1 mph 82% 0 in meteobridge W/m2
07:15 43.3 °F 38.3 °F 30.35 in Calm   4 mph 82% 0 in meteobridge W/m2
07:20 43.2 °F 38.1 °F 30.35 in SE 0.9 mph 4 mph 82% 0 in meteobridge W/m2
07:25 43.2 °F 37.8 °F 30.35 in SE 4.9 mph 8 mph 81% 0 in meteobridge W/m2
07:30 43.2 °F 37.4 °F 30.35 in Calm   5 mph 80% 0 in meteobridge W/m2
07:35 43.2 °F 37.4 °F 30.35 in Calm   5 mph 80% 0 in meteobridge W/m2
07:40 43.2 °F 37.4 °F 30.35 in SSE 6.9 mph 9 mph 80% 0 in meteobridge W/m2
07:45 43.2 °F 37.4 °F 30.36 in Calm   6 mph 80% 0 in meteobridge W/m2
07:50 43 °F 37.2 °F 30.36 in Calm     80% 0 in meteobridge W/m2
07:55 43 °F 36.9 °F 30.36 in Calm   1 mph 79% 0 in meteobridge W/m2
08:00 42.8 °F 36.7 °F 30.36 in Calm   2 mph 79% 0 in meteobridge W/m2
08:05 42.6 °F 36.5 °F 30.36 in Calm   6 mph 79% 0 in meteobridge W/m2
08:10 42.6 °F 36.3 °F 30.36 in Calm   5 mph 78% 0 in meteobridge W/m2
08:15 42.6 °F 36.3 °F 30.36 in Calm   4 mph 78% 0 in meteobridge W/m2
08:20 42.4 °F 35.8 °F 30.37 in SE 4 mph 4 mph 77% 0 in meteobridge W/m2
08:25 42.4 °F 35.8 °F 30.36 in SE 4.9 mph 5 mph 77% 0 in meteobridge W/m2
08:30 42.4 °F 35.4 °F 30.36 in East 2 mph 5 mph 76% 0 in meteobridge W/m2
08:35 42.4 °F 35.4 °F 30.36 in SE 0.9 mph 4 mph 76% 0 in meteobridge W/m2
08:40 42.4 °F 35.1 °F 30.36 in East 2 mph 8 mph 75% 0 in meteobridge W/m2
08:45 42.6 °F 35.2 °F 30.36 in Calm   12 mph 75% 0 in meteobridge W/m2
08:50 42.8 °F 35.1 °F 30.36 in Calm   2 mph 74% 0 in meteobridge W/m2
08:55 43 °F 35.2 °F 30.36 in ESE 4.9 mph 7 mph 74% 0 in meteobridge W/m2
09:00 43.2 °F 35.4 °F 30.37 in East 8.9 mph 9 mph 74% 0 in meteobridge W/m2
09:05 43.2 °F 35.4 °F 30.37 in SE 6 mph 7 mph 74% 0 in meteobridge W/m2
09:10 43.3 °F 35.2 °F 30.37 in Calm   11 mph 73% 0 in meteobridge W/m2
09:15 43.3 °F 34.9 °F 30.37 in SE 0.9 mph 4 mph 72% 0 in meteobridge W/m2
09:20 43.5 °F 35.1 °F 30.37 in SE 2 mph 6 mph 72% 0 in meteobridge W/m2
09:25 44.1 °F 35.2 °F 30.37 in Calm   8 mph 71% 0 in meteobridge W/m2
09:30 44.4 °F 36 °F 30.37 in East 4 mph 5 mph 72% 0 in meteobridge W/m2
09:35 44.8 °F 36 °F 30.37 in Calm   5 mph 71% 0 in meteobridge W/m2
09:40 45 °F 35.4 °F 30.37 in SE 0.9 mph 5 mph 69% 0 in meteobridge W/m2
09:45 45 °F 35.4 °F 30.37 in SE 0.9 mph 8 mph 69% 0 in meteobridge W/m2
09:50 45 °F 35.4 °F 30.37 in Calm   7 mph 69% 0 in meteobridge W/m2
09:55 44.8 °F 35.2 °F 30.37 in SE 2 mph 6 mph 69% 0 in meteobridge W/m2
10:00 44.8 °F 35.2 °F 30.37 in East 6 mph 6 mph 69% 0 in meteobridge W/m2
10:05 44.6 °F 35.1 °F 30.37 in SE 8.1 mph 8 mph 69% 0 in meteobridge W/m2
10:10 44.4 °F 35.2 °F 30.37 in SE 2 mph 6 mph 70% 0 in meteobridge W/m2
10:15 44.4 °F 35.2 °F 30.37 in East 4.9 mph 6 mph 70% 0 in meteobridge W/m2
10:20 44.6 °F 35.4 °F 30.36 in Calm   7 mph 70% 0 in meteobridge W/m2
10:25 45 °F 35.8 °F 30.36 in ESE 4.9 mph 6 mph 70% 0 in meteobridge W/m2
10:30 45.9 °F 36 °F 30.36 in Calm   7 mph 68% 0 in meteobridge W/m2
10:35 46.2 °F 36.3 °F 30.36 in Calm   4 mph 68% 0 in meteobridge W/m2
10:40 46.6 °F 36.1 °F 30.36 in Calm   5 mph 67% 0 in meteobridge W/m2
10:45 46.8 °F 36.3 °F 30.37 in Calm   6 mph 67% 0 in meteobridge W/m2
10:50 46.8 °F 36.7 °F 30.36 in Calm   8 mph 68% 0 in meteobridge W/m2
10:55 46.9 °F 36.5 °F 30.36 in East 2 mph 6 mph 67% 0 in meteobridge W/m2
11:00 46.9 °F 36.5 °F 30.36 in Calm   7 mph 67% 0 in meteobridge W/m2
11:05 47.3 °F 36.5 °F 30.37 in ESE 2 mph 5 mph 66% 0 in meteobridge W/m2
11:10 47.7 °F 36.9 °F 30.37 in Calm   7 mph 66% 0 in meteobridge W/m2
11:15 47.8 °F 36.7 °F 30.36 in Calm   4 mph 65% 0 in meteobridge W/m2
11:20 47.8 °F 36.7 °F 30.36 in East 2 mph 7 mph 65% 0 in meteobridge W/m2
11:25 47.7 °F 36.5 °F 30.36 in SSE 4.9 mph 5 mph 65% 0 in meteobridge W/m2
11:30 48 °F 36.5 °F 30.36 in ESE 2 mph 5 mph 64% 0 in meteobridge W/m2
11:35 48.2 °F 36.7 °F 30.36 in Calm   9 mph 64% 0 in meteobridge W/m2
11:40 48.4 °F 37.2 °F 30.36 in ESE 4 mph 4 mph 65% 0 in meteobridge W/m2
11:45 48.6 °F 36.9 °F 30.35 in Calm   2 mph 64% 0 in meteobridge W/m2
11:50 48.9 °F 36.9 °F 30.35 in Calm   8 mph 63% 0 in meteobridge W/m2
11:55 49.3 °F 36.9 °F 30.35 in Calm   4 mph 62% 0 in meteobridge W/m2
12:00 49.5 °F 37.4 °F 30.34 in ENE 2.9 mph 5 mph 63% 0 in meteobridge W/m2
12:05 49.6 °F 37.6 °F 30.34 in Calm   2 mph 63% 0 in meteobridge W/m2
12:10 50 °F 37.6 °F 30.33 in ESE 0.9 mph 5 mph 62% 0 in meteobridge W/m2
12:15 50.2 °F 36.9 °F 30.32 in Calm   8 mph 60% 0 in meteobridge W/m2
12:20 50.2 °F 37.2 °F 30.31 in Calm   5 mph 61% 0 in meteobridge W/m2
12:25 50.4 °F 37.4 °F 30.31 in Calm   6 mph 61% 0 in meteobridge W/m2
12:30 50.5 °F 37.6 °F 30.30 in Calm   4 mph 61% 0 in meteobridge W/m2
12:35 50.7 °F 37.4 °F 30.30 in ESE 2 mph 5 mph 60% 0 in meteobridge W/m2
12:40 51.1 °F 38.1 °F 30.29 in ESE 0.9 mph 4 mph 61% 0 in meteobridge W/m2
12:45 51.3 °F 37.4 °F 30.29 in Calm   9 mph 59% 0 in meteobridge W/m2
12:50 51.4 °F 37.6 °F 30.29 in SE 0.9 mph 5 mph 59% 0 in meteobridge W/m2
12:55 51.3 °F 37.4 °F 30.29 in ESE 0.9 mph 6 mph 59% 0 in meteobridge W/m2
13:00 51.4 °F 37.2 °F 30.29 in SE 0.9 mph 1 mph 58% 0 in meteobridge W/m2
13:05 51.6 °F 37.4 °F 30.29 in ESE 2 mph 4 mph 58% 0 in meteobridge W/m2
13:10 51.4 °F 37.2 °F 30.29 in ESE 2 mph 6 mph 58% 0 in meteobridge W/m2
13:15 51.1 °F 37.2 °F 30.28 in SE 2 mph 5 mph 59% 0 in meteobridge W/m2
13:20 50.9 °F 37 °F 30.29 in Calm   5 mph 59% 0 in meteobridge W/m2
13:25 50.9 °F 37 °F 30.28 in SE 4 mph 4 mph 59% 0 in meteobridge W/m2
13:30 51.3 °F 37 °F 30.28 in Calm   5 mph 58% 0 in meteobridge W/m2
13:35 51.4 °F 37.2 °F 30.28 in Calm     58% 0 in meteobridge W/m2
13:40 52 °F 37.6 °F 30.28 in Calm   5 mph 58% 0 in meteobridge W/m2
13:45 52.2 °F 37.8 °F 30.28 in Calm   1 mph 58% 0 in meteobridge W/m2
13:50 52.5 °F 38.7 °F 30.28 in Calm   4 mph 59% 0 in meteobridge W/m2
13:55 52.5 °F 37.8 °F 30.28 in Calm   5 mph 57% 0 in meteobridge W/m2
14:00 52.5 °F 37.2 °F 30.27 in Calm   4 mph 56% 0 in meteobridge W/m2
14:05 52.7 °F 37.9 °F 30.27 in ESE 0.9 mph 4 mph 57% 0 in meteobridge W/m2
14:10 52.5 °F 37.2 °F 30.27 in Calm   4 mph 56% 0 in meteobridge W/m2
14:15 52.5 °F 37.8 °F 30.27 in ESE 0.9 mph 1 mph 57% 0 in meteobridge W/m2
14:20 52.7 °F 37.4 °F 30.26 in SE 6.9 mph 7 mph 56% 0 in meteobridge W/m2
14:25 52.7 °F 37.9 °F 30.26 in Calm   6 mph 57% 0 in meteobridge W/m2
14:30 52.9 °F 38.1 °F 30.26 in SSW 4 mph 4 mph 57% 0 in meteobridge W/m2
14:35 52.9 °F 38.1 °F 30.25 in East 2 mph 5 mph 57% 0 in meteobridge W/m2
14:40 52.7 °F 37.4 °F 30.25 in Calm   7 mph 56% 0 in meteobridge W/m2
14:45 52.5 °F 38.1 °F 30.24 in Calm   1 mph 58% 0 in meteobridge W/m2
14:50 52.5 °F 37.8 °F 30.24 in Calm   5 mph 57% 0 in meteobridge W/m2
14:55 52.3 °F 37.6 °F 30.24 in Calm   4 mph 57% 0 in meteobridge W/m2
15:00 52.3 °F 37.6 °F 30.24 in SE 4.9 mph 5 mph 57% 0 in meteobridge W/m2
15:05 52.3 °F 37.9 °F 30.24 in Calm   1 mph 58% 0 in meteobridge W/m2
15:10 52.3 °F 37.6 °F 30.24 in SE 4 mph 6 mph 57% 0 in meteobridge W/m2
15:15 52.3 °F 37.6 °F 30.24 in Calm   1 mph 57% 0 in meteobridge W/m2
15:20 52.3 °F 37.6 °F 30.24 in SE 0.9 mph 4 mph 57% 0 in meteobridge W/m2
15:25 52.2 °F 37.4 °F 30.24 in SSE 2 mph 5 mph 57% 0 in meteobridge W/m2
15:30 52.2 °F 37.8 °F 30.24 in Calm   2 mph 58% 0 in meteobridge W/m2
15:35 52 °F 38.1 °F 30.24 in Calm   1 mph 59% 0 in meteobridge W/m2
15:40 52 °F 38.1 °F 30.24 in Calm   2 mph 59% 0 in meteobridge W/m2
15:45 51.8 °F 38.3 °F 30.24 in SSE 0.9 mph 1 mph 60% 0 in meteobridge W/m2
15:50 51.6 °F 37.4 °F 30.24 in Calm   5 mph 58% 0 in meteobridge W/m2
15:55 51.6 °F 37.4 °F 30.24 in Calm   2 mph 58% 0 in meteobridge W/m2
16:00 51.4 °F 37.6 °F 30.24 in Calm   1 mph 59% 0 in meteobridge W/m2
16:05 51.4 °F 37.6 °F 30.24 in Calm   1 mph 59% 0 in meteobridge W/m2
16:10 51.3 °F 37.4 °F 30.24 in Calm   1 mph 59% 0 in meteobridge W/m2
16:15 51.1 °F 37.2 °F 30.24 in SE 2 mph 5 mph 59% 0 in meteobridge W/m2
16:20 50.9 °F 37.6 °F 30.24 in Calm   1 mph 60% 0 in meteobridge W/m2
16:25 50.7 °F 37.4 °F 30.23 in Calm   2 mph 60% 0 in meteobridge W/m2
16:30 50.5 °F 37.2 °F 30.24 in SE 2 mph 4 mph 60% 0 in meteobridge W/m2
16:35 50.5 °F 37.6 °F 30.22 in Calm   1 mph 61% 0 in meteobridge W/m2
16:40 50.5 °F 37.2 °F 30.22 in SE 0.9 mph 1 mph 60% 0 in meteobridge W/m2
16:45 50.5 °F 37.2 °F 30.22 in Calm     60% 0 in meteobridge W/m2
16:50 50.5 °F 37.2 °F 30.22 in SE 2 mph 6 mph 60% 0 in meteobridge W/m2
16:55 50.7 °F 37.4 °F 30.22 in Calm     60% 0 in meteobridge W/m2
17:00 50.5 °F 37.2 °F 30.22 in Calm   5 mph 60% 0 in meteobridge W/m2
17:05 50.5 °F 37.6 °F 30.23 in Calm   1 mph 61% 0 in meteobridge W/m2
17:10 50.4 °F 37 °F 30.24 in SE 0.9 mph 1 mph 60% 0 in meteobridge W/m2
17:15 50.4 °F 37.4 °F 30.24 in Calm     61% 0 in meteobridge W/m2
17:20 50.4 °F 37 °F 30.23 in Calm   4 mph 60% 0 in meteobridge W/m2
17:25 50.2 °F 36.9 °F 30.23 in Calm     60% 0 in meteobridge W/m2
17:30 50.2 °F 37.2 °F 30.23 in Calm   1 mph 61% 0 in meteobridge W/m2
17:35 50.2 °F 37.2 °F 30.23 in SE 0.9 mph 4 mph 61% 0 in meteobridge W/m2
17:40 50.2 °F 37.2 °F 30.23 in SE 2 mph 5 mph 61% 0 in meteobridge W/m2
17:45 50.2 °F 37.6 °F 30.23 in Calm   1 mph 62% 0 in meteobridge W/m2
17:50 49.8 °F 36.9 °F 30.23 in Calm     61% 0 in meteobridge W/m2
17:55 49.8 °F 36.9 °F 30.24 in Calm     61% 0 in meteobridge W/m2
18:00 49.8 °F 37.4 °F 30.24 in Calm   1 mph 62% 0 in meteobridge W/m2
18:05 49.6 °F 36.7 °F 30.24 in Calm   5 mph 61% 0 in meteobridge W/m2
18:10 49.6 °F 36.7 °F 30.24 in East 4 mph 6 mph 61% 0 in meteobridge W/m2
18:15 49.6 °F 36.7 °F 30.24 in ESE 0.9 mph 6 mph 61% 0 in meteobridge W/m2
18:20 49.6 °F 36.7 °F 30.23 in Calm   1 mph 61% 0 in meteobridge W/m2
18:25 49.6 °F 36.7 °F 30.23 in SSE 0.9 mph 4 mph 61% 0 in meteobridge W/m2
18:30 49.6 °F 36.7 °F 30.22 in Calm   7 mph 61% 0 in meteobridge W/m2
18:35 49.5 °F 36.5 °F 30.22 in Calm   4 mph 61% 0 in meteobridge W/m2
18:40 49.3 °F 36.3 °F 30.22 in Calm   4 mph 61% 0 in meteobridge W/m2
18:45 49.3 °F 36.9 °F 30.22 in SSE 0.9 mph 7 mph 62% 0 in meteobridge W/m2
18:50 49.3 °F 36.9 °F 30.23 in Calm   1 mph 62% 0 in meteobridge W/m2
18:55 49.3 °F 36.9 °F 30.23 in SSE 0.9 mph 6 mph 62% 0 in meteobridge W/m2
19:00 49.3 °F 36.9 °F 30.23 in Calm   1 mph 62% 0 in meteobridge W/m2
19:05 49.3 °F 36.9 °F 30.23 in Calm   2 mph 62% 0 in meteobridge W/m2
19:10 49.3 °F 36.9 °F 30.22 in Calm   6 mph 62% 0 in meteobridge W/m2
19:15 49.3 °F 36.9 °F 30.22 in Calm   6 mph 62% 0 in meteobridge W/m2
19:20 49.3 °F 36.9 °F 30.22 in Calm   2 mph 62% 0 in meteobridge W/m2
19:25 49.1 °F 36.7 °F 30.22 in SE 4 mph 5 mph 62% 0 in meteobridge W/m2
19:30 48.9 °F 36.5 °F 30.22 in Calm   8 mph 62% 0 in meteobridge W/m2
19:35 48.9 °F 36.5 °F 30.23 in Calm   1 mph 62% 0 in meteobridge W/m2
19:40 48.9 °F 36.1 °F 30.24 in Calm   7 mph 61% 0 in meteobridge W/m2
19:45 48.9 °F 36.5 °F 30.24 in Calm     62% 0 in meteobridge W/m2
19:50 48.9 °F 36.1 °F 30.24 in Calm   2 mph 61% 0 in meteobridge W/m2
19:55 48.9 °F 36.5 °F 30.24 in Calm   1 mph 62% 0 in meteobridge W/m2
20:00 48.7 °F 36.3 °F 30.24 in Calm   4 mph 62% 0 in meteobridge W/m2
20:05 48.7 °F 36 °F 30.23 in Calm   7 mph 61% 0 in meteobridge W/m2
20:10 48.7 °F 36.3 °F 30.23 in Calm   2 mph 62% 0 in meteobridge W/m2
20:15 48.6 °F 36.1 °F 30.22 in SE 0.9 mph 1 mph 62% 0 in meteobridge W/m2
20:20 48.6 °F 35.8 °F 30.22 in Calm   6 mph 61% 0 in meteobridge W/m2
20:25 48.6 °F 36.1 °F 30.22 in Calm   2 mph 62% 0 in meteobridge W/m2
20:30 48.6 °F 36.1 °F 30.22 in Calm   5 mph 62% 0 in meteobridge W/m2
20:35 48.6 °F 35.8 °F 30.22 in Calm   1 mph 61% 0 in meteobridge W/m2
20:40 48.6 °F 35.8 °F 30.22 in ESE 4 mph 6 mph 61% 0 in meteobridge W/m2
20:45 48.6 °F 35.8 °F 30.21 in SE 4 mph 4 mph 61% 0 in meteobridge W/m2
20:50 48.6 °F 35.8 °F 30.21 in Calm   4 mph 61% 0 in meteobridge W/m2
20:55 48.6 °F 35.8 °F 30.22 in NNE 2.9 mph 3 mph 61% 0 in meteobridge W/m2
21:00 48.4 °F 35.6 °F 30.23 in Calm   5 mph 61% 0 in meteobridge W/m2
21:05 48.4 °F 35.6 °F 30.23 in SE 0.9 mph 1 mph 61% 0 in meteobridge W/m2
21:10 48.6 °F 35.2 °F 30.23 in Calm   5 mph 60% 0 in meteobridge W/m2
21:15 48.6 °F 35.2 °F 30.23 in SE 2 mph 2 mph 60% 0 in meteobridge W/m2
21:20 48.6 °F 35.2 °F 30.22 in ESE 4 mph 5 mph 60% 0 in meteobridge W/m2
21:25 48.6 °F 35.8 °F 30.22 in Calm   1 mph 61% 0 in meteobridge W/m2
21:30 48.6 °F 35.8 °F 30.22 in Calm   5 mph 61% 0 in meteobridge W/m2
21:35 48.6 °F 35.2 °F 30.22 in Calm   4 mph 60% 0 in meteobridge W/m2
21:40 48.6 °F 35.2 °F 30.22 in Calm   1 mph 60% 0 in meteobridge W/m2
21:45 48.6 °F 35.8 °F 30.22 in Calm   1 mph 61% 0 in meteobridge W/m2
21:50 48.6 °F 35.2 °F 30.22 in Calm   2 mph 60% 0 in meteobridge W/m2
21:55 48.4 °F 35.1 °F 30.22 in SE 6 mph 6 mph 60% 0 in meteobridge W/m2
22:00 48.4 °F 35.1 °F 30.22 in SE 0.9 mph 4 mph 60% 0 in meteobridge W/m2
22:05 48.4 °F 34.7 °F 30.23 in Calm   4 mph 59% 0 in meteobridge W/m2
22:10 48.4 °F 35.6 °F 30.22 in Calm     61% 0 in meteobridge W/m2
22:15 48 °F 34.9 °F 30.22 in Calm   1 mph 60% 0 in meteobridge W/m2
22:20 48 °F 34.9 °F 30.22 in Calm   1 mph 60% 0 in meteobridge W/m2
22:25 48 °F 34.9 °F 30.22 in Calm   4 mph 60% 0 in meteobridge W/m2
22:30 48 °F 34.9 °F 30.22 in Calm     60% 0 in meteobridge W/m2
22:35 48 °F 34.9 °F 30.21 in ESE 2 mph 5 mph 60% 0 in meteobridge W/m2
22:40 48 °F 34.9 °F 30.21 in Calm   6 mph 60% 0 in meteobridge W/m2
22:45 48 °F 34.9 °F 30.21 in Calm   1 mph 60% 0 in meteobridge W/m2
22:50 48 °F 34.9 °F 30.20 in Calm   7 mph 60% 0 in meteobridge W/m2
22:55 48 °F 34.9 °F 30.19 in Calm   2 mph 60% 0 in meteobridge W/m2
23:00 48 °F 34.9 °F 30.19 in SE 2 mph 5 mph 60% 0 in meteobridge W/m2
23:05 48 °F 34.9 °F 30.19 in SE 0.9 mph 2 mph 60% 0 in meteobridge W/m2
23:10 48 °F 34.9 °F 30.19 in Calm   4 mph 60% 0 in meteobridge W/m2
23:15 47.8 °F 34.7 °F 30.19 in Calm   2 mph 60% 0 in meteobridge W/m2
23:20 48 °F 34.9 °F 30.19 in SE 4.9 mph 5 mph 60% 0 in meteobridge W/m2
23:25 48 °F 34.9 °F 30.19 in Calm     60% 0 in meteobridge W/m2
23:30 48 °F 34.9 °F 30.19 in Calm   2 mph 60% 0 in meteobridge W/m2
23:35 48 °F 34.9 °F 30.19 in Calm   5 mph 60% 0 in meteobridge W/m2
23:40 48 °F 34.9 °F 30.19 in Calm   6 mph 60% 0 in meteobridge W/m2
23:45 47.8 °F 34.7 °F 30.19 in Calm   3 mph 60% 0 in meteobridge W/m2
23:50 47.8 °F 34.2 °F 30.19 in Calm   5 mph 59% 0 in meteobridge W/m2
23:55 47.8 °F 35.1 °F 30.19 in Calm     61% 0 in meteobridge W/m2
EllijayWeather
Compliments of Weather Underground - 2.5 mb